• Join FlightAware (Why Join?)
  • Login
  • US Flag 
09:18AM EDT


 

Airport Tracker/Info


-or-


 

Live Flight TrackerFlight Track Log ✈ SWA2436 ✈ 07-Sep-2013 ✈ KSEA - KMCI

Flight Track Log - Related Links

Times and Time Zones

All times are in EDT time to prevent confusion due to time zone crossing. See the SWA2436 flight status page for this flight to view local times or setup timezone preferences in your user account.

Time Position Orientation Groundspeed Altitude Reporting Facility
EDT Latitude Longitude Course Direction KTS MPH feet Rate Location/Type
03:33PM 47.4800 -122.3060 359° North 188 216 1,800  Level FlightAware
03:34PM 47.5080 -122.3080 357° North 196 226 1,900 2,160 Climbing FlightAware
03:34PM 47.5290 -122.3080 360° North 229 264 3,600 4,500 Climbing FlightAware
03:35PM 47.5580 -122.3090 359° North 238 274 4,900 3,540 Climbing FlightAware
03:35PM 47.5770 -122.3090 360° North 235 270 6,100 3,360 Climbing FlightAware
03:35PM 47.6000 -122.2940 24° Northeast 246 283 7,400 3,300 Climbing FlightAware
03:36PM 47.6080 -122.2720 62° Northeast 254 292 8,200 3,300 Climbing FlightAware
03:36PM 47.6090 -122.2670 73° East 258 297 8,400 2,460 Climbing FlightAware
03:36PM 47.6100 -122.2540 83° East 265 305 8,700 2,400 Climbing FlightAware
03:36PM 47.6110 -122.2040 88° East 293 337 9,600 2,340 Climbing FlightAware
03:37PM 47.6100 -122.1200 91° East 333 383 11,200 2,160 Climbing FlightAware
03:37PM 47.6070 -122.0840 97° East 356 410 11,600 2,220 Climbing FlightAware
03:38PM 47.5790 -122.0160 121° Southeast 376 433 13,100 2,940 Climbing FlightAware
03:38PM 47.5400 -121.9380 127° Southeast 384 442 15,100 3,240 Climbing FlightAware
03:39PM 47.5000 -121.8590 127° Southeast 387 445 17,000 2,700 Climbing FlightAware
03:39PM 47.4610 -121.7840 128° Southeast 409 471 18,300 2,160 Climbing FlightAware
03:40PM 47.4410 -121.7370 122° Southeast 411 473 19,000 2,160 Climbing FlightAware
03:40PM 47.4320 -121.6960 108° East 415 478 19,600 2,220 Climbing FlightAware
03:40PM 47.4290 -121.6550 96° East 415 478 20,100 2,160 Climbing FlightAware
03:41PM 47.4280 -121.5530 91° East 427 491 21,400 2,160 Climbing FlightAware
03:41PM 47.4260 -121.4680 92° East 434 499 22,500 2,220 Climbing FlightAware
03:42PM 47.4240 -121.3300 91° East 444 511 24,200 2,160 Climbing FlightAware
03:43PM 47.4220 -121.2260 92° East 451 519 25,400 1,920 Climbing FlightAware
03:43PM 47.4210 -121.1160 91° East 458 527 26,500 1,800 Climbing FlightAware
03:44PM 47.4190 -121.0070 92° East 466 536 27,500 1,620 Climbing FlightAware
03:45PM 47.4160 -120.8600 92° East 475 547 28,700 1,500 Climbing FlightAware
03:45PM 47.4140 -120.7660 92° East 480 552 29,400 1,320 Climbing FlightAware
03:46PM 47.4110 -120.6310 92° East 489 563 30,300 1,320 Climbing FlightAware
03:46PM 47.4080 -120.5130 92° East 497 572 31,100 1,440 Climbing FlightAware
03:47PM 47.4030 -120.4150 94° East 499 574 31,900 1,440 Climbing FlightAware
03:47PM 47.3860 -120.3000 102° East 499 574 32,700 1,620 Climbing FlightAware
03:48PM 47.3650 -120.1790 104° East 496 571 33,800 1,560 Climbing FlightAware
03:49PM 47.3420 -120.0480 104° East 493 567 34,700 1,200 Climbing FlightAware
03:49PM 47.3270 -119.9630 105° East 496 571 35,200 1,080 Climbing FlightAware
03:50PM 47.3050 -119.8390 105° East 495 570 35,900 1,500 Climbing FlightAware
03:50PM 47.2860 -119.7320 105° East 480 552 37,000 840 Climbing FlightAware
03:51PM 47.2620 -119.5980 105° East 481 554 37,000  Level FlightAware
03:52PM 47.2460 -119.5090 105° East 480 552 37,000  Level FlightAware
03:52PM 47.2290 -119.4150 105° East 479 551 37,000  Level FlightAware
03:53PM 47.2030 -119.2710 105° East 481 554 37,000  Level FlightAware
03:53PM 47.1840 -119.1590 104° East 481 554 37,000  Level FlightAware
03:54PM 47.1640 -119.0460 105° East 480 552 37,000  Level FlightAware
03:55PM 47.1460 -118.9440 105° East 480 552 37,000  Level FlightAware
03:55PM 47.1240 -118.8220 105° East 478 550 37,000  Level FlightAware
03:56PM 47.1060 -118.7240 105° East 477 549 37,000  Level FlightAware
03:56PM 47.0870 -118.6160 104° East 476 548 37,000  Level FlightAware
03:57PM 47.0670 -118.5090 105° East 474 545 37,000  Level FlightAware
03:57PM 47.0470 -118.3980 105° East 473 544 37,000  Level FlightAware
03:58PM 47.0260 -118.2880 106° East 473 544 37,000  Level FlightAware
03:59PM 47.0100 -118.1980 105° East 473 544 37,000  Level FlightAware
03:59PM 46.9780 -118.0260 105° East 473 544 37,000  Level FlightAware
04:00PM 46.9600 -117.9280 105° East 473 544 37,000  Level FlightAware
04:01PM 46.9280 -117.7580 105° East 474 545 37,000  Level FlightAware
04:02PM 46.9100 -117.6610 105° East 474 545 37,000  Level FlightAware
04:02PM 46.8930 -117.5660 105° East 474 545 37,000  Level FlightAware
04:03PM 46.8690 -117.4390 105° East 474 545 37,000  Level FlightAware
04:04PM 46.8520 -117.3450 105° East 474 545 37,000  Level FlightAware
04:04PM 46.8350 -117.2500 105° East 474 545 37,000  Level FlightAware
04:05PM 46.8170 -117.1550 105° East 474 545 37,000  Level FlightAware
04:05PM 46.7990 -117.0580 105° East 474 545 37,000  Level FlightAware
04:06PM 46.7820 -116.9630 105° East 474 545 37,000  Level FlightAware
04:07PM 46.7650 -116.8690 105° East 474 545 37,000  Level FlightAware
04:07PM 46.6910 -116.5520 109° East 530 610 37,000  Level FlightAware
04:08PM 46.6680 -116.4390 106° East 473 544 37,000  Level FlightAware
04:09PM 46.6410 -116.3090 107° East 473 544 37,000  Level FlightAware
04:09PM 46.6230 -116.2150 106° East 473 544 37,000  Level FlightAware
04:10PM 46.6040 -116.1210 106° East 473 544 37,000  Level FlightAware
04:11PM 46.5810 -116.0040 106° East 473 544 37,000  Level FlightAware
04:11PM 46.5440 -115.8360 108° East 473 544 37,000  Level FlightAware
04:12PM 46.5260 -115.7480 107° East 473 544 37,000  Level FlightAware
04:13PM 46.5080 -115.6550 106° East 473 544 37,000  Level FlightAware
04:13PM 46.4890 -115.5610 106° East 473 544 37,000  Level FlightAware
04:14PM 46.4710 -115.4680 106° East 473 544 37,000  Level FlightAware
04:14PM 46.4530 -115.3740 106° East 473 544 37,000  Level FlightAware
04:15PM 46.4340 -115.2810 106° East 473 544 37,000  Level FlightAware
04:16PM 46.4160 -115.1870 105° East 473 544 37,000  Level FlightAware
04:16PM 46.3970 -115.0940 106° East 473 544 37,000  Level FlightAware
04:17PM 46.3790 -115.0010 106° East 473 544 37,000  Level FlightAware
04:17PM 46.3600 -114.9070 106° East 473 544 37,000  Level FlightAware
04:18PM 46.3420 -114.8140 106° East 473 544 37,000  Level FlightAware
04:19PM 46.3230 -114.7210 106° East 473 544 37,000  Level FlightAware
04:19PM 46.3050 -114.6280 106° East 473 544 37,000  Level FlightAware
04:20PM 46.2860 -114.5350 106° East 473 544 37,000  Level FlightAware
04:20PM 46.1850 -114.1970 113° Southeast 472 543 37,000  Level FlightAware
04:21PM 46.1590 -114.0820 108° East 471 542 37,000  Level FlightAware
04:22PM 46.1390 -113.9920 108° East 472 543 37,000  Level FlightAware
04:22PM 46.1120 -113.8750 108° East 471 542 37,000  Level FlightAware
04:23PM 46.0860 -113.7670 109° East 470 541 37,000 60 Level FlightAware
04:23PM 46.0650 -113.6750 108° East 473 544 37,100 660 Climbing FlightAware
04:24PM 46.0400 -113.5660 108° East 472 543 37,800 1,020 Climbing FlightAware
04:24PM 46.0170 -113.4690 109° East 468 539 38,300 780 Climbing FlightAware
04:25PM 45.9920 -113.3640 109° East 470 541 38,700 600 Climbing FlightAware
04:26PM 45.9710 -113.2740 109° East 474 545 39,000 240 Climbing FlightAware
04:26PM 45.9480 -113.1740 108° East 474 545 39,000  Level FlightAware
04:27PM 45.9170 -113.0450 109° East 474 545 39,000  Level FlightAware
04:27PM 45.8920 -112.9430 109° East 475 547 39,000  Level FlightAware
04:28PM 45.8680 -112.8410 109° East 474 545 39,000  Level FlightAware
04:29PM 45.8410 -112.7310 109° East 473 544 39,000  Level FlightAware
04:29PM 45.8180 -112.6340 109° East 474 545 39,000  Level FlightAware
04:30PM 45.7930 -112.5320 109° East 470 541 39,000  Level FlightAware
04:30PM 45.7660 -112.4240 110° East 468 539 39,000  Level FlightAware
04:31PM 45.7430 -112.3290 109° East 467 537 39,000  Level FlightAware
04:32PM 45.7170 -112.2240 109° East 468 539 39,000  Level FlightAware
04:32PM 45.6930 -112.1280 110° East 467 537 39,000  Level FlightAware
04:33PM 45.6660 -112.0210 110° East 466 536 39,000  Level FlightAware
04:33PM 45.6400 -111.9170 110° East 453 521 39,000  Level FlightAware
04:34PM 45.6160 -111.8210 110° East 448 516 39,000  Level FlightAware
04:34PM 45.5910 -111.7230 110° East 448 516 39,000  Level FlightAware
04:35PM 45.5680 -111.6340 110° East 447 514 39,000  Level FlightAware
04:36PM 45.5420 -111.5300 110° East 448 516 39,000  Level FlightAware
04:36PM 45.5180 -111.4360 110° East 447 514 39,000  Level FlightAware
04:37PM 45.4930 -111.3390 110° East 447 514 39,000  Level FlightAware
04:37PM 45.4670 -111.2400 110° East 446 513 39,000  Level FlightAware
04:38PM 45.4420 -111.1440 110° East 449 517 39,000  Level FlightAware
04:39PM 45.4150 -111.0400 110° East 453 521 39,000  Level FlightAware
04:39PM 45.3930 -110.9550 110° East 454 522 39,000  Level FlightAware
04:40PM 45.3670 -110.8540 110° East 452 520 39,000  Level FlightAware
04:40PM 45.3390 -110.7510 111° Southeast 452 520 39,000  Level FlightAware
04:41PM 45.3150 -110.6600 111° Southeast 452 520 39,000  Level FlightAware
04:41PM 45.2880 -110.5580 111° Southeast 453 521 39,000  Level FlightAware
04:42PM 45.2610 -110.4570 111° Southeast 454 522 39,000  Level FlightAware
04:43PM 45.2380 -110.3710 111° Southeast 458 527 39,000  Level FlightAware
04:43PM 45.2110 -110.2690 111° Southeast 459 528 39,000  Level FlightAware
04:44PM 45.1830 -110.1660 111° Southeast 462 532 39,000  Level FlightAware
04:44PM 45.1560 -110.0660 111° Southeast 464 534 39,000  Level FlightAware
04:45PM 45.1280 -109.9670 112° Southeast 466 536 39,000  Level FlightAware
04:45PM 45.1040 -109.8770 111° Southeast 467 537 39,000  Level FlightAware
04:46PM 45.0750 -109.7710 111° Southeast 465 535 39,000  Level FlightAware
04:47PM 45.0500 -109.6830 112° Southeast 462 532 39,000  Level FlightAware
04:47PM 45.0210 -109.5770 111° Southeast 462 532 39,000  Level FlightAware
04:48PM 44.9940 -109.4790 111° Southeast 462 532 39,000  Level FlightAware
04:48PM 44.9670 -109.3840 112° Southeast 458 527 39,000  Level FlightAware
04:49PM 44.9380 -109.2810 112° Southeast 456 525 39,000  Level FlightAware
04:50PM 44.9120 -109.1870 111° Southeast 457 526 39,000  Level FlightAware
04:50PM 44.8860 -109.0960 112° Southeast 459 528 39,000  Level FlightAware
04:51PM 44.8530 -108.9780 111° Southeast 460 529 39,000  Level FlightAware
04:51PM 44.8220 -108.8730 113° Southeast 460 529 39,000  Level FlightAware
04:52PM 44.7960 -108.7820 112° Southeast 457 526 39,000  Level FlightAware
04:53PM 44.7680 -108.6840 112° Southeast 454 522 39,000  Level FlightAware
04:53PM 44.7420 -108.5930 112° Southeast 453 521 39,000  Level FlightAware
04:54PM 44.7130 -108.4940 112° Southeast 451 519 39,000  Level FlightAware
04:54PM 44.6860 -108.3990 112° Southeast 449 517 39,000  Level FlightAware
04:55PM 44.6610 -108.3120 112° Southeast 447 514 39,000  Level FlightAware
04:56PM 44.6330 -108.2170 112° Southeast 445 512 39,000  Level FlightAware
04:56PM 44.6040 -108.1180 112° Southeast 444 511 39,000  Level FlightAware
04:57PM 44.5760 -108.0230 112° Southeast 444 511 39,000  Level FlightAware
04:57PM 44.5500 -107.9380 113° Southeast 447 514 39,000  Level FlightAware
04:58PM 44.5210 -107.8390 112° Southeast 447 514 39,000  Level FlightAware
04:58PM 44.4950 -107.7520 113° Southeast 448 516 39,000  Level FlightAware
04:59PM 44.4640 -107.6470 112° Southeast 452 520 39,000  Level FlightAware
05:00PM 44.4400 -107.5670 113° Southeast 454 522 39,000  Level FlightAware
05:00PM 44.4130 -107.4760 113° Southeast 454 522 39,000  Level FlightAware
05:01PM 44.3890 -107.3930 112° Southeast 454 522 39,000  Level FlightAware
05:01PM 44.3650 -107.3090 112° Southeast 454 522 39,000  Level FlightAware
05:02PM 44.3410 -107.2260 112° Southeast 454 522 39,000  Level FlightAware
05:03PM 44.3170 -107.1430 112° Southeast 454 522 39,000  Level FlightAware
05:03PM 44.2920 -107.0570 112° Southeast 454 522 39,000  Level FlightAware
05:04PM 44.2250 -106.8640 116° Southeast 446 513 39,000  Level FlightAware
05:05PM 44.1960 -106.7680 113° Southeast 446 513 39,000  Level FlightAware
05:05PM 44.1620 -106.6600 114° Southeast 446 513 39,000  Level FlightAware
05:06PM 44.1330 -106.5680 114° Southeast 450 518 39,000  Level FlightAware
05:06PM 44.1020 -106.4690 114° Southeast 453 521 39,000  Level FlightAware
05:07PM 44.0750 -106.3840 114° Southeast 454 522 39,000  Level FlightAware
05:08PM 44.0460 -106.2930 114° Southeast 455 524 39,000  Level FlightAware
05:08PM 44.0160 -106.1980 114° Southeast 456 525 39,000  Level FlightAware
05:09PM 43.9800 -106.0850 114° Southeast 456 525 39,000  Level FlightAware
05:10PM 43.9470 -105.9780 113° Southeast 457 526 39,000  Level FlightAware
05:10PM 43.9220 -105.8950 113° Southeast 457 526 39,000  Level FlightAware
05:11PM 43.8970 -105.8150 113° Southeast 457 526 39,000  Level FlightAware
05:11PM 43.8730 -105.7370 113° Southeast 457 526 39,000  Level FlightAware
05:12PM 43.8480 -105.6540 113° Southeast 457 526 39,000  Level FlightAware
05:13PM 43.8230 -105.5720 113° Southeast 457 526 39,000  Level FlightAware
05:13PM 43.7970 -105.4890 113° Southeast 457 526 39,000  Level FlightAware
05:14PM 43.7720 -105.4070 113° Southeast 457 526 39,000  Level FlightAware
05:14PM 43.7470 -105.3240 113° Southeast 457 526 39,000  Level FlightAware
05:15PM 43.7210 -105.2420 114° Southeast 457 526 39,000  Level FlightAware
05:16PM 43.6960 -105.1590 113° Southeast 457 526 39,000  Level FlightAware
05:16PM 43.6710 -105.0770 113° Southeast 457 526 39,000  Level FlightAware
05:17PM 43.6460 -104.9950 113° Southeast 457 526 39,000  Level FlightAware
05:17PM 43.6200 -104.9120 113° Southeast 457 526 39,000  Level FlightAware
05:18PM 43.5950 -104.8300 113° Southeast 457 526 39,000  Level FlightAware
05:19PM 43.5690 -104.7460 113° Southeast 457 526 39,000  Level FlightAware
05:20PM 43.4069 -104.3439 113° Southeast 454 522 39,000  Level Denver Center
05:21PM 43.3469 -104.1656 115° Southeast 457 526 39,000  Level Denver Center
05:22PM 43.2953 -104.0156 115° Southeast 454 522 39,000  Level Denver Center
05:23PM 43.2347 -103.8389 115° Southeast 456 525 39,000  Level Denver Center
05:24PM 43.1808 -103.6886 116° Southeast 457 526 39,000  Level Denver Center
05:25PM 43.1192 -103.5128 116° Southeast 458 527 39,000  Level Denver Center
05:26PM 43.0667 -103.3631 116° Southeast 455 524 39,000  Level Denver Center
05:28PM 42.9967 -103.1658 116° Southeast 450 518 39,000  Level Denver Center
05:29PM 42.9353 -102.9917 116° Southeast 454 522 39,000  Level Denver Center
05:30PM 42.8722 -102.8186 116° Southeast 456 525 39,000  Level Denver Center
05:31PM 42.8178 -102.6706 117° Southeast 456 525 39,000  Level Denver Center
05:32PM 42.7561 -102.4967 116° Southeast 457 526 39,000  Level Denver Center
05:33PM 42.7011 -102.3500 117° Southeast 455 524 39,000  Level Denver Center
05:34PM 42.6483 -102.2019 116° Southeast 453 521 39,000  Level Denver Center
05:35PM 42.5853 -102.0322 117° Southeast 451 519 39,000  Level Denver Center
05:36PM 42.5322 -101.8875 116° Southeast 448 516 39,000  Level Denver Center
05:37PM 42.4736 -101.7283 116° Southeast 448 516 39,000  Level Denver Center
05:38PM 42.4108 -101.5594 117° Southeast 449 517 39,000  Level Denver Center
05:39PM 42.3564 -101.4181 117° Southeast 446 513 39,000  Level Denver Center
05:40PM 42.3011 -101.2739 117° Southeast 450 518 39,000  Level Denver Center
05:41PM 42.2364 -101.1033 117° Southeast 456 525 39,000  Level Denver Center
05:42PM 42.1814 -100.9578 117° Southeast 454 522 39,000  Level Denver Center
05:43PM 42.1158 -100.7881 117° Southeast 456 525 39,000  Level Denver Center
05:44PM 42.0583 -100.6431 118° Southeast 458 527 39,000  Level Denver Center
05:45PM 41.9933 -100.4758 118° Southeast 453 521 39,000  Level Denver Center
05:46PM 41.9378 -100.3319 117° Southeast 452 520 39,000  Level Denver Center
05:51PM 41.6280 -99.5520 117° Southeast 450 518 39,000  Level FlightAware
05:52PM 41.5910 -99.4610 119° Southeast 451 519 39,000  Level FlightAware
05:53PM 41.5420 -99.3410 119° Southeast 455 524 39,000  Level FlightAware
05:53PM 41.5110 -99.2640 118° Southeast 458 527 39,000  Level FlightAware
05:54PM 41.4740 -99.1740 119° Southeast 459 528 39,000  Level FlightAware
05:54PM 41.4430 -99.0980 119° Southeast 457 526 39,000  Level FlightAware
05:55PM 41.4030 -98.9990 118° Southeast 457 526 39,000  Level FlightAware
05:56PM 41.3730 -98.9270 119° Southeast 458 527 39,000  Level FlightAware
05:56PM 41.3320 -98.8270 119° Southeast 458 527 39,000  Level FlightAware
05:57PM 41.2990 -98.7480 119° Southeast 457 526 39,000  Level FlightAware
05:57PM 41.2670 -98.6680 118° Southeast 457 526 39,000  Level FlightAware
05:58PM 41.2150 -98.5450 119° Southeast 457 526 39,000  Level FlightAware
05:59PM 41.1660 -98.4290 119° Southeast 454 522 39,000  Level FlightAware
06:00PM 41.1300 -98.3420 119° Southeast 454 522 39,000  Level FlightAware
06:00PM 41.0950 -98.2580 119° Southeast 454 522 39,000  Level FlightAware
06:01PM 41.0590 -98.1740 120° Southeast 454 522 39,000  Level FlightAware
06:01PM 41.0220 -98.0870 119° Southeast 453 521 39,000  Level FlightAware
06:02PM 40.9710 -97.9670 119° Southeast 451 519 39,000  Level FlightAware
06:03PM 40.9370 -97.8860 119° Southeast 451 519 39,000  Level FlightAware
06:03PM 40.9050 -97.8130 120° Southeast 450 518 39,000  Level FlightAware
06:04PM 40.8640 -97.7170 119° Southeast 450 518 39,000 -120 Level FlightAware
06:04PM 40.8320 -97.6400 119° Southeast 451 519 38,900 -600 Descending FlightAware
06:05PM 40.8000 -97.5670 120° Southeast 452 520 38,400 -1,020 Descending FlightAware
06:06PM 40.7620 -97.4780 119° Southeast 439 505 37,800 -1,080 Descending FlightAware
06:06PM 40.7220 -97.3860 120° Southeast 439 505 37,100 -720 Descending FlightAware
06:07PM 40.6910 -97.3160 120° Southeast 440 506 37,000 -120 Descending FlightAware
06:07PM 40.6460 -97.2120 120° Southeast 441 507 37,000 -120 Level FlightAware
06:08PM 40.6090 -97.1280 120° Southeast 442 509 36,900 -540 Descending FlightAware
06:09PM 40.5770 -97.0550 120° Southeast 441 507 36,400 -900 Descending FlightAware
06:09PM 40.5410 -96.9720 120° Southeast 443 510 35,900 -1,080 Descending FlightAware
06:10PM 40.5060 -96.8930 120° Southeast 446 513 35,200 -2,160 Descending FlightAware
06:10PM 40.4670 -96.8040 120° Southeast 452 520 33,400 -2,760 Descending FlightAware
06:11PM 40.4320 -96.7240 120° Southeast 449 517 32,000 -2,400 Descending FlightAware
06:12PM 40.3950 -96.6410 120° Southeast 443 510 30,700 -2,280 Descending FlightAware
06:12PM 40.3570 -96.5560 120° Southeast 435 501 29,400 -2,220 Descending FlightAware
06:13PM 40.3220 -96.4770 120° Southeast 427 491 28,100 -2,220 Descending FlightAware
06:13PM 40.2850 -96.3950 121° Southeast 419 482 26,800 -2,100 Descending FlightAware
06:14PM 40.2530 -96.3240 121° Southeast 411 473 25,700 -1,980 Descending FlightAware
06:14PM 40.2200 -96.2500 120° Southeast 404 465 24,600 -1,920 Descending FlightAware
06:15PM 40.1850 -96.1720 120° Southeast 398 458 23,400 -1,860 Descending FlightAware
06:16PM 40.1560 -96.1070 120° Southeast 398 458 22,500 -1,860 Descending FlightAware
06:16PM 40.1220 -96.0280 119° Southeast 397 457 21,300 -1,920 Descending FlightAware
06:17PM 40.0900 -95.9560 120° Southeast 392 451 20,200 -1,740 Descending FlightAware
06:17PM 40.0580 -95.8840 120° Southeast 379 436 19,300 -1,500 Descending FlightAware
06:18PM 40.0290 -95.8200 121° Southeast 373 429 18,500 -1,680 Descending FlightAware
06:19PM 39.9970 -95.7490 120° Southeast 364 419 17,400 -1,860 Descending FlightAware
06:19PM 39.9680 -95.6830 120° Southeast 359 413 16,300 -1,920 Descending FlightAware
06:20PM 39.9410 -95.6240 121° Southeast 357 411 15,300 -1,920 Descending FlightAware
06:20PM 39.9170 -95.5710 121° Southeast 355 409 14,400 -1,860 Descending FlightAware
06:21PM 39.8880 -95.5050 120° Southeast 352 405 13,300 -1,860 Descending FlightAware
06:21PM 39.8590 -95.4410 121° Southeast 350 403 12,200 -1,200 Descending FlightAware
06:22PM 39.8170 -95.3870 135° Southeast 347 399 11,900 -840 Descending FlightAware
06:23PM 39.7760 -95.3450 142° Southeast 334 384 11,300 -780 Descending FlightAware
06:23PM 39.7240 -95.2890 140° Southeast 324 373 10,900 -300 Descending FlightAware
06:24PM 39.6890 -95.2500 139° Southeast 324 373 10,900  Level FlightAware
06:25PM 39.6530 -95.2110 140° Southeast 324 373 10,900 -2,580 Level FlightAware
06:25PM 39.6375 -95.1339 140° Southeast 307 353 8,000 -2,220 Descending Minneapolis Center
06:26PM 39.5933 -95.0531 125° Southeast 304 350 7,500 -1,260 Descending Minneapolis Center
06:28PM 39.5219 -94.9178 124° Southeast 294 338 5,000 -1,140 Descending Kansas City Center
06:29PM 39.4825 -94.8450 125° Southeast 258 297 4,700 -660 Descending Kansas City Center
06:30PM 39.4436 -94.7725 125° Southeast 221 254 3,700 -1,020 Descending Kansas City Center
06:31PM 39.4122 -94.7225 129° Southeast 190 219 2,700 -900 Descending Kansas City Center
06:32PM 39.3722 -94.7067 163° South 160 184 1,900 -780 Descending Kansas City Center
06:33PM 39.3286 -94.7192 193° South 144 166 1,200 -480 Descending Kansas City Center
06:34PM 39.2911 -94.7300 193° South 145 167 1,000 -240 Descending Kansas City Center